sensor_id;sensor_type;location;lat;lon;timestamp;temperature;humidity
75190;HTU21D;69198;44.694;37.790;2024-03-06T00:00:41;10.56;68.59
75190;HTU21D;69198;44.694;37.790;2024-03-06T00:01:42;10.58;68.56
75190;HTU21D;69198;44.694;37.790;2024-03-06T00:02:43;10.56;68.53
75190;HTU21D;69198;44.694;37.790;2024-03-06T00:03:45;10.56;68.53
75190;HTU21D;69198;44.694;37.790;2024-03-06T00:04:46;10.55;68.54
75190;HTU21D;69198;44.694;37.790;2024-03-06T00:05:47;10.54;68.55
75190;HTU21D;69198;44.694;37.790;2024-03-06T00:06:49;10.53;68.53
75190;HTU21D;69198;44.694;37.790;2024-03-06T00:07:52;10.52;68.56
75190;HTU21D;69198;44.694;37.790;2024-03-06T00:08:53;10.51;68.55
75190;HTU21D;69198;44.694;37.790;2024-03-06T00:09:54;10.48;68.56
75190;HTU21D;69198;44.694;37.790;2024-03-06T00:10:55;10.46;68.60
75190;HTU21D;69198;44.694;37.790;2024-03-06T00:11:57;10.45;68.60
75190;HTU21D;69198;44.694;37.790;2024-03-06T00:12:58;10.45;68.62
75190;HTU21D;69198;44.694;37.790;2024-03-06T00:13:59;10.45;68.65
75190;HTU21D;69198;44.694;37.790;2024-03-06T00:15:04;10.44;68.62
75190;HTU21D;69198;44.694;37.790;2024-03-06T00:16:05;10.42;68.65
75190;HTU21D;69198;44.694;37.790;2024-03-06T00:17:06;10.43;68.62
75190;HTU21D;69198;44.694;37.790;2024-03-06T00:18:07;10.45;68.62
75190;HTU21D;69198;44.694;37.790;2024-03-06T00:19:08;10.44;68.57
75190;HTU21D;69198;44.694;37.790;2024-03-06T00:20:10;10.48;68.54
75190;HTU21D;69198;44.694;37.790;2024-03-06T00:21:11;10.48;68.54
75190;HTU21D;69198;44.694;37.790;2024-03-06T00:22:12;10.49;68.52
75190;HTU21D;69198;44.694;37.790;2024-03-06T00:23:13;10.49;68.51
75190;HTU21D;69198;44.694;37.790;2024-03-06T00:24:15;10.50;68.50
75190;HTU21D;69198;44.694;37.790;2024-03-06T00:25:16;10.50;68.48
75190;HTU21D;69198;44.694;37.790;2024-03-06T00:26:17;10.50;68.45
75190;HTU21D;69198;44.694;37.790;2024-03-06T00:27:18;10.51;68.46
75190;HTU21D;69198;44.694;37.790;2024-03-06T00:28:22;10.51;68.46
75190;HTU21D;69198;44.694;37.790;2024-03-06T00:29:24;10.51;68.44
75190;HTU21D;69198;44.694;37.790;2024-03-06T00:30:25;10.50;68.42
75190;HTU21D;69198;44.694;37.790;2024-03-06T00:31:27;10.51;68.42
75190;HTU21D;69198;44.694;37.790;2024-03-06T00:32:28;10.50;68.41
75190;HTU21D;69198;44.694;37.790;2024-03-06T00:33:29;10.48;68.42
75190;HTU21D;69198;44.694;37.790;2024-03-06T00:34:30;10.49;68.42
75190;HTU21D;69198;44.694;37.790;2024-03-06T00:35:31;10.49;68.41
75190;HTU21D;69198;44.694;37.790;2024-03-06T00:36:32;10.48;68.40
75190;HTU21D;69198;44.694;37.790;2024-03-06T00:37:33;10.49;68.38
75190;HTU21D;69198;44.694;37.790;2024-03-06T00:38:34;10.51;68.36
75190;HTU21D;69198;44.694;37.790;2024-03-06T00:39:35;10.53;68.34
75190;HTU21D;69198;44.694;37.790;2024-03-06T00:40:36;10.51;68.31
75190;HTU21D;69198;44.694;37.790;2024-03-06T00:41:37;10.51;68.30
75190;HTU21D;69198;44.694;37.790;2024-03-06T00:42:38;10.51;68.30
75190;HTU21D;69198;44.694;37.790;2024-03-06T00:43:41;10.49;68.32
75190;HTU21D;69198;44.694;37.790;2024-03-06T00:44:42;10.48;68.33
75190;HTU21D;69198;44.694;37.790;2024-03-06T00:45:43;10.49;68.33
75190;HTU21D;69198;44.694;37.790;2024-03-06T00:46:44;10.49;68.31
75190;HTU21D;69198;44.694;37.790;2024-03-06T00:47:45;10.48;68.32
75190;HTU21D;69198;44.694;37.790;2024-03-06T00:48:46;10.49;68.30
75190;HTU21D;69198;44.694;37.790;2024-03-06T00:49:47;10.46;68.32
75190;HTU21D;69198;44.694;37.790;2024-03-06T00:50:48;10.49;68.30
75190;HTU21D;69198;44.694;37.790;2024-03-06T00:51:49;10.45;68.30
75190;HTU21D;69198;44.694;37.790;2024-03-06T00:52:50;10.44;68.34
75190;HTU21D;69198;44.694;37.790;2024-03-06T00:53:51;10.44;68.35
75190;HTU21D;69198;44.694;37.790;2024-03-06T00:54:52;10.41;68.36
75190;HTU21D;69198;44.694;37.790;2024-03-06T00:55:53;10.40;68.39
75190;HTU21D;69198;44.694;37.790;2024-03-06T00:56:54;10.38;68.43
75190;HTU21D;69198;44.694;37.790;2024-03-06T00:57:55;10.36;68.43
75190;HTU21D;69198;44.694;37.790;2024-03-06T00:58:56;10.35;68.47
75190;HTU21D;69198;44.694;37.790;2024-03-06T00:59:57;10.33;68.47
75190;HTU21D;69198;44.694;37.790;2024-03-06T01:00:58;10.33;68.51
75190;HTU21D;69198;44.694;37.790;2024-03-06T01:01:59;10.29;68.55
75190;HTU21D;69198;44.694;37.790;2024-03-06T01:03:00;10.28;68.58
75190;HTU21D;69198;44.694;37.790;2024-03-06T01:04:01;10.29;68.61
75190;HTU21D;69198;44.694;37.790;2024-03-06T01:05:03;10.29;68.62
75190;HTU21D;69198;44.694;37.790;2024-03-06T01:06:04;10.30;68.62
75190;HTU21D;69198;44.694;37.790;2024-03-06T01:07:06;10.29;68.61
75190;HTU21D;69198;44.694;37.790;2024-03-06T01:08:06;10.26;68.63
75190;HTU21D;69198;44.694;37.790;2024-03-06T01:09:08;10.25;68.65
75190;HTU21D;69198;44.694;37.790;2024-03-06T01:10:09;10.25;68.68
75190;HTU21D;69198;44.694;37.790;2024-03-06T01:11:11;10.25;68.71
75190;HTU21D;69198;44.694;37.790;2024-03-06T01:12:15;10.23;68.74
75190;HTU21D;69198;44.694;37.790;2024-03-06T01:13:17;10.23;68.75
75190;HTU21D;69198;44.694;37.790;2024-03-06T01:14:18;10.23;68.77
75190;HTU21D;69198;44.694;37.790;2024-03-06T01:15:19;10.25;68.74
75190;HTU21D;69198;44.694;37.790;2024-03-06T01:16:20;10.26;68.70
75190;HTU21D;69198;44.694;37.790;2024-03-06T01:17:21;10.25;68.70
75190;HTU21D;69198;44.694;37.790;2024-03-06T01:18:23;10.25;68.71
75190;HTU21D;69198;44.694;37.790;2024-03-06T01:19:24;10.25;68.68
75190;HTU21D;69198;44.694;37.790;2024-03-06T01:20:25;10.27;68.70
75190;HTU21D;69198;44.694;37.790;2024-03-06T01:21:27;10.26;68.67
75190;HTU21D;69198;44.694;37.790;2024-03-06T01:22:29;10.26;68.70
75190;HTU21D;69198;44.694;37.790;2024-03-06T01:23:30;10.26;68.68
75190;HTU21D;69198;44.694;37.790;2024-03-06T01:24:31;10.26;68.68
75190;HTU21D;69198;44.694;37.790;2024-03-06T01:25:33;10.26;68.69
75190;HTU21D;69198;44.694;37.790;2024-03-06T01:26:34;10.27;68.69
75190;HTU21D;69198;44.694;37.790;2024-03-06T01:27:35;10.28;68.68
75190;HTU21D;69198;44.694;37.790;2024-03-06T01:28:36;10.27;68.66
75190;HTU21D;69198;44.694;37.790;2024-03-06T01:29:37;10.27;68.66
75190;HTU21D;69198;44.694;37.790;2024-03-06T01:30:38;10.26;68.68
75190;HTU21D;69198;44.694;37.790;2024-03-06T01:31:39;10.25;68.71
75190;HTU21D;69198;44.694;37.790;2024-03-06T01:32:40;10.24;68.73
75190;HTU21D;69198;44.694;37.790;2024-03-06T01:33:41;10.25;68.73
75190;HTU21D;69198;44.694;37.790;2024-03-06T01:34:42;10.24;68.75
75190;HTU21D;69198;44.694;37.790;2024-03-06T01:35:44;10.23;68.76
75190;HTU21D;69198;44.694;37.790;2024-03-06T01:36:44;10.23;68.75
75190;HTU21D;69198;44.694;37.790;2024-03-06T01:37:46;10.23;68.74
75190;HTU21D;69198;44.694;37.790;2024-03-06T01:38:47;10.23;68.73
75190;HTU21D;69198;44.694;37.790;2024-03-06T01:39:48;10.25;68.74
75190;HTU21D;69198;44.694;37.790;2024-03-06T01:40:49;10.23;68.72
75190;HTU21D;69198;44.694;37.790;2024-03-06T01:41:50;10.25;68.75
75190;HTU21D;69198;44.694;37.790;2024-03-06T01:42:51;10.24;68.74
75190;HTU21D;69198;44.694;37.790;2024-03-06T01:43:52;10.23;68.73
75190;HTU21D;69198;44.694;37.790;2024-03-06T01:44:53;10.25;68.73
75190;HTU21D;69198;44.694;37.790;2024-03-06T01:45:54;10.24;68.71
75190;HTU21D;69198;44.694;37.790;2024-03-06T01:46:55;10.24;68.71
75190;HTU21D;69198;44.694;37.790;2024-03-06T01:47:56;10.26;68.70
75190;HTU21D;69198;44.694;37.790;2024-03-06T01:48:57;10.25;68.66
75190;HTU21D;69198;44.694;37.790;2024-03-06T01:49:59;10.25;68.67
75190;HTU21D;69198;44.694;37.790;2024-03-06T01:51:02;10.25;68.66
75190;HTU21D;69198;44.694;37.790;2024-03-06T01:52:05;10.23;68.66
75190;HTU21D;69198;44.694;37.790;2024-03-06T01:53:08;10.22;68.69
75190;HTU21D;69198;44.694;37.790;2024-03-06T01:54:10;10.22;68.75
75190;HTU21D;69198;44.694;37.790;2024-03-06T01:55:12;10.20;68.75
75190;HTU21D;69198;44.694;37.790;2024-03-06T01:56:13;10.21;68.76
75190;HTU21D;69198;44.694;37.790;2024-03-06T01:57:19;10.23;68.76
75190;HTU21D;69198;44.694;37.790;2024-03-06T01:58:21;10.21;68.75
75190;HTU21D;69198;44.694;37.790;2024-03-06T01:59:23;10.20;68.75
75190;HTU21D;69198;44.694;37.790;2024-03-06T02:00:27;10.18;68.75
75190;HTU21D;69198;44.694;37.790;2024-03-06T02:01:28;10.18;68.78
75190;HTU21D;69198;44.694;37.790;2024-03-06T02:02:30;10.16;68.79
75190;HTU21D;69198;44.694;37.790;2024-03-06T02:03:34;10.19;68.77
75190;HTU21D;69198;44.694;37.790;2024-03-06T02:04:35;10.16;68.78
75190;HTU21D;69198;44.694;37.790;2024-03-06T02:05:36;10.16;68.80
75190;HTU21D;69198;44.694;37.790;2024-03-06T02:06:41;10.16;68.78
75190;HTU21D;69198;44.694;37.790;2024-03-06T02:07:43;10.14;68.81
75190;HTU21D;69198;44.694;37.790;2024-03-06T02:08:46;10.11;68.83
75190;HTU21D;69198;44.694;37.790;2024-03-06T02:09:47;10.10;68.86
75190;HTU21D;69198;44.694;37.790;2024-03-06T02:10:49;10.08;68.90
75190;HTU21D;69198;44.694;37.790;2024-03-06T02:11:50;10.07;68.93
75190;HTU21D;69198;44.694;37.790;2024-03-06T02:12:52;10.08;68.92
75190;HTU21D;69198;44.694;37.790;2024-03-06T02:13:54;10.06;68.94
75190;HTU21D;69198;44.694;37.790;2024-03-06T02:14:55;10.04;68.92
75190;HTU21D;69198;44.694;37.790;2024-03-06T02:15:56;10.04;68.96
75190;HTU21D;69198;44.694;37.790;2024-03-06T02:16:57;10.01;68.94
75190;HTU21D;69198;44.694;37.790;2024-03-06T02:17:58;9.99;68.98
75190;HTU21D;69198;44.694;37.790;2024-03-06T02:18:59;9.98;69.02
75190;HTU21D;69198;44.694;37.790;2024-03-06T02:20:00;9.97;69.06
75190;HTU21D;69198;44.694;37.790;2024-03-06T02:21:00;9.98;69.08
75190;HTU21D;69198;44.694;37.790;2024-03-06T02:22:01;9.97;69.06
75190;HTU21D;69198;44.694;37.790;2024-03-06T02:23:03;9.97;69.05
75190;HTU21D;69198;44.694;37.790;2024-03-06T02:24:04;9.97;69.05
75190;HTU21D;69198;44.694;37.790;2024-03-06T02:25:06;9.97;69.03
75190;HTU21D;69198;44.694;37.790;2024-03-06T02:26:07;9.96;69.04
75190;HTU21D;69198;44.694;37.790;2024-03-06T02:27:08;9.94;69.06
75190;HTU21D;69198;44.694;37.790;2024-03-06T02:28:09;9.95;69.09
75190;HTU21D;69198;44.694;37.790;2024-03-06T02:29:10;9.95;69.11
75190;HTU21D;69198;44.694;37.790;2024-03-06T02:30:11;9.95;69.13
75190;HTU21D;69198;44.694;37.790;2024-03-06T02:31:12;9.98;69.09
75190;HTU21D;69198;44.694;37.790;2024-03-06T02:32:13;9.97;69.08
75190;HTU21D;69198;44.694;37.790;2024-03-06T02:33:15;9.97;69.06
75190;HTU21D;69198;44.694;37.790;2024-03-06T02:34:16;9.98;69.05
75190;HTU21D;69198;44.694;37.790;2024-03-06T02:35:17;9.99;69.01
75190;HTU21D;69198;44.694;37.790;2024-03-06T02:36:18;10.00;69.00
75190;HTU21D;69198;44.694;37.790;2024-03-06T02:37:20;10.00;68.99
75190;HTU21D;69198;44.694;37.790;2024-03-06T02:38:21;9.99;68.99
75190;HTU21D;69198;44.694;37.790;2024-03-06T02:39:22;9.98;68.99
75190;HTU21D;69198;44.694;37.790;2024-03-06T02:40:23;9.97;69.00
75190;HTU21D;69198;44.694;37.790;2024-03-06T02:41:24;9.96;69.02
75190;HTU21D;69198;44.694;37.790;2024-03-06T02:42:26;9.95;69.02
75190;HTU21D;69198;44.694;37.790;2024-03-06T02:43:27;9.94;69.05
75190;HTU21D;69198;44.694;37.790;2024-03-06T02:44:28;9.94;69.04
75190;HTU21D;69198;44.694;37.790;2024-03-06T02:45:29;9.93;69.04
75190;HTU21D;69198;44.694;37.790;2024-03-06T02:46:30;9.92;69.06
75190;HTU21D;69198;44.694;37.790;2024-03-06T02:47:31;9.93;69.05
75190;HTU21D;69198;44.694;37.790;2024-03-06T02:48:31;9.93;69.02
75190;HTU21D;69198;44.694;37.790;2024-03-06T02:49:32;9.94;69.04
75190;HTU21D;69198;44.694;37.790;2024-03-06T02:50:33;9.94;69.01
75190;HTU21D;69198;44.694;37.790;2024-03-06T02:51:35;9.94;69.00
75190;HTU21D;69198;44.694;37.790;2024-03-06T02:52:36;9.96;68.97
75190;HTU21D;69198;44.694;37.790;2024-03-06T02:53:37;9.99;68.92
75190;HTU21D;69198;44.694;37.790;2024-03-06T02:54:40;9.98;68.94
75190;HTU21D;69198;44.694;37.790;2024-03-06T02:55:41;9.99;68.90
75190;HTU21D;69198;44.694;37.790;2024-03-06T02:56:42;9.98;68.88
75190;HTU21D;69198;44.694;37.790;2024-03-06T02:57:43;9.97;68.89
75190;HTU21D;69198;44.694;37.790;2024-03-06T02:58:45;9.98;68.91
75190;HTU21D;69198;44.694;37.790;2024-03-06T02:59:46;9.97;68.91
75190;HTU21D;69198;44.694;37.790;2024-03-06T03:00:47;9.98;68.91
75190;HTU21D;69198;44.694;37.790;2024-03-06T03:01:48;9.97;68.91
75190;HTU21D;69198;44.694;37.790;2024-03-06T03:02:49;9.96;68.91
75190;HTU21D;69198;44.694;37.790;2024-03-06T03:03:50;9.97;68.91
75190;HTU21D;69198;44.694;37.790;2024-03-06T03:04:52;9.96;68.92
75190;HTU21D;69198;44.694;37.790;2024-03-06T03:05:53;9.96;68.91
75190;HTU21D;69198;44.694;37.790;2024-03-06T03:06:54;9.94;68.91
75190;HTU21D;69198;44.694;37.790;2024-03-06T03:07:55;9.94;68.93
75190;HTU21D;69198;44.694;37.790;2024-03-06T03:08:56;9.93;68.93
75190;HTU21D;69198;44.694;37.790;2024-03-06T03:09:57;9.96;68.91
75190;HTU21D;69198;44.694;37.790;2024-03-06T03:10:58;9.96;68.88
75190;HTU21D;69198;44.694;37.790;2024-03-06T03:11:59;9.98;68.87
75190;HTU21D;69198;44.694;37.790;2024-03-06T03:13:00;9.98;68.86
75190;HTU21D;69198;44.694;37.790;2024-03-06T03:14:02;9.98;68.84
75190;HTU21D;69198;44.694;37.790;2024-03-06T03:15:03;9.99;68.82
75190;HTU21D;69198;44.694;37.790;2024-03-06T03:16:05;9.98;68.82
75190;HTU21D;69198;44.694;37.790;2024-03-06T03:17:06;9.98;68.81
75190;HTU21D;69198;44.694;37.790;2024-03-06T03:18:08;9.97;68.81
75190;HTU21D;69198;44.694;37.790;2024-03-06T03:19:08;9.98;68.81
75190;HTU21D;69198;44.694;37.790;2024-03-06T03:20:10;9.99;68.78
75190;HTU21D;69198;44.694;37.790;2024-03-06T03:21:36;10.04;68.70
75190;HTU21D;69198;44.694;37.790;2024-03-06T03:22:38;9.99;68.78
75190;HTU21D;69198;44.694;37.790;2024-03-06T03:23:40;10.00;68.76
75190;HTU21D;69198;44.694;37.790;2024-03-06T03:24:43;10.01;68.75
75190;HTU21D;69198;44.694;37.790;2024-03-06T03:25:45;10.03;68.74
75190;HTU21D;69198;44.694;37.790;2024-03-06T03:26:46;10.00;68.73
75190;HTU21D;69198;44.694;37.790;2024-03-06T03:27:47;10.01;68.71
75190;HTU21D;69198;44.694;37.790;2024-03-06T03:28:48;10.04;68.67
75190;HTU21D;69198;44.694;37.790;2024-03-06T03:29:49;10.05;68.65
75190;HTU21D;69198;44.694;37.790;2024-03-06T03:30:50;10.05;68.64
75190;HTU21D;69198;44.694;37.790;2024-03-06T03:31:51;10.06;68.60
75190;HTU21D;69198;44.694;37.790;2024-03-06T03:32:53;10.06;68.59
75190;HTU21D;69198;44.694;37.790;2024-03-06T03:33:55;10.08;68.54
75190;HTU21D;69198;44.694;37.790;2024-03-06T03:34:56;10.10;68.49
75190;HTU21D;69198;44.694;37.790;2024-03-06T03:35:57;10.10;68.43
75190;HTU21D;69198;44.694;37.790;2024-03-06T03:36:58;10.11;68.38
75190;HTU21D;69198;44.694;37.790;2024-03-06T03:37:59;10.12;68.36
75190;HTU21D;69198;44.694;37.790;2024-03-06T03:39:00;10.12;68.32
75190;HTU21D;69198;44.694;37.790;2024-03-06T03:40:01;10.13;68.33
75190;HTU21D;69198;44.694;37.790;2024-03-06T03:41:13;10.11;68.32
75190;HTU21D;69198;44.694;37.790;2024-03-06T03:42:14;10.09;68.33
75190;HTU21D;69198;44.694;37.790;2024-03-06T03:43:15;10.07;68.34
75190;HTU21D;69198;44.694;37.790;2024-03-06T03:44:17;10.07;68.33
75190;HTU21D;69198;44.694;37.790;2024-03-06T03:45:21;10.05;68.36
75190;HTU21D;69198;44.694;37.790;2024-03-06T03:46:22;10.04;68.40
75190;HTU21D;69198;44.694;37.790;2024-03-06T03:47:23;10.03;68.42
75190;HTU21D;69198;44.694;37.790;2024-03-06T03:48:24;10.03;68.44
75190;HTU21D;69198;44.694;37.790;2024-03-06T03:49:27;10.05;68.48
75190;HTU21D;69198;44.694;37.790;2024-03-06T03:50:29;10.04;68.44
75190;HTU21D;69198;44.694;37.790;2024-03-06T03:51:30;10.05;68.45
75190;HTU21D;69198;44.694;37.790;2024-03-06T03:52:31;10.04;68.45
75190;HTU21D;69198;44.694;37.790;2024-03-06T03:53:33;10.06;68.41
75190;HTU21D;69198;44.694;37.790;2024-03-06T03:54:34;10.06;68.40
75190;HTU21D;69198;44.694;37.790;2024-03-06T03:55:35;10.06;68.39
75190;HTU21D;69198;44.694;37.790;2024-03-06T03:56:37;10.06;68.40
75190;HTU21D;69198;44.694;37.790;2024-03-06T03:57:38;10.05;68.40
75190;HTU21D;69198;44.694;37.790;2024-03-06T03:58:39;10.06;68.39
75190;HTU21D;69198;44.694;37.790;2024-03-06T03:59:40;10.06;68.42
75190;HTU21D;69198;44.694;37.790;2024-03-06T04:00:42;10.05;68.44
75190;HTU21D;69198;44.694;37.790;2024-03-06T04:01:45;10.07;68.43
75190;HTU21D;69198;44.694;37.790;2024-03-06T04:02:47;10.08;68.39
75190;HTU21D;69198;44.694;37.790;2024-03-06T04:03:48;10.10;68.35
75190;HTU21D;69198;44.694;37.790;2024-03-06T04:04:49;10.13;68.32
75190;HTU21D;69198;44.694;37.790;2024-03-06T04:05:50;10.15;68.26
75190;HTU21D;69198;44.694;37.790;2024-03-06T04:06:51;10.19;68.17
75190;HTU21D;69198;44.694;37.790;2024-03-06T04:07:52;10.21;68.13
75190;HTU21D;69198;44.694;37.790;2024-03-06T04:08:53;10.23;68.07
75190;HTU21D;69198;44.694;37.790;2024-03-06T04:09:55;10.25;68.04
75190;HTU21D;69198;44.694;37.790;2024-03-06T04:10:56;10.26;68.01
75190;HTU21D;69198;44.694;37.790;2024-03-06T04:11:56;10.30;67.99
75190;HTU21D;69198;44.694;37.790;2024-03-06T04:12:59;10.36;67.92
75190;HTU21D;69198;44.694;37.790;2024-03-06T04:14:00;10.43;67.81
75190;HTU21D;69198;44.694;37.790;2024-03-06T04:15:01;10.52;67.67
75190;HTU21D;69198;44.694;37.790;2024-03-06T04:16:03;10.62;67.51
75190;HTU21D;69198;44.694;37.790;2024-03-06T04:17:04;10.72;67.29
75190;HTU21D;69198;44.694;37.790;2024-03-06T04:18:05;10.80;67.15
75190;HTU21D;69198;44.694;37.790;2024-03-06T04:19:07;10.90;66.92
75190;HTU21D;69198;44.694;37.790;2024-03-06T04:20:08;10.99;66.73
75190;HTU21D;69198;44.694;37.790;2024-03-06T04:21:12;11.05;66.59
75190;HTU21D;69198;44.694;37.790;2024-03-06T04:22:18;11.15;66.40
75190;HTU21D;69198;44.694;37.790;2024-03-06T04:23:19;11.24;66.22
75190;HTU21D;69198;44.694;37.790;2024-03-06T04:24:20;11.29;66.12
75190;HTU21D;69198;44.694;37.790;2024-03-06T04:25:21;11.37;65.95
75190;HTU21D;69198;44.694;37.790;2024-03-06T04:26:24;11.43;65.79
75190;HTU21D;69198;44.694;37.790;2024-03-06T04:27:25;11.48;65.66
75190;HTU21D;69198;44.694;37.790;2024-03-06T04:28:27;11.54;65.49
75190;HTU21D;69198;44.694;37.790;2024-03-06T04:29:28;11.61;65.35
75190;HTU21D;69198;44.694;37.790;2024-03-06T04:30:29;11.68;65.20
75190;HTU21D;69198;44.694;37.790;2024-03-06T04:31:29;11.73;65.02
75190;HTU21D;69198;44.694;37.790;2024-03-06T04:32:30;11.84;64.97
75190;HTU21D;69198;44.694;37.790;2024-03-06T04:33:32;11.98;64.64
75190;HTU21D;69198;44.694;37.790;2024-03-06T04:34:33;12.12;64.34
75190;HTU21D;69198;44.694;37.790;2024-03-06T04:35:34;12.26;64.04
75190;HTU21D;69198;44.694;37.790;2024-03-06T04:36:38;12.44;63.63
75190;HTU21D;69198;44.694;37.790;2024-03-06T04:37:39;12.59;63.24
75190;HTU21D;69198;44.694;37.790;2024-03-06T04:38:40;12.74;62.89
75190;HTU21D;69198;44.694;37.790;2024-03-06T04:39:42;12.88;62.47
75190;HTU21D;69198;44.694;37.790;2024-03-06T04:40:43;13.04;62.28
75190;HTU21D;69198;44.694;37.790;2024-03-06T04:41:44;13.17;61.80
75190;HTU21D;69198;44.694;37.790;2024-03-06T04:42:48;13.31;61.42
75190;HTU21D;69198;44.694;37.790;2024-03-06T04:43:52;13.45;61.21
75190;HTU21D;69198;44.694;37.790;2024-03-06T04:44:53;13.56;60.82
75190;HTU21D;69198;44.694;37.790;2024-03-06T04:45:54;13.68;60.51
75190;HTU21D;69198;44.694;37.790;2024-03-06T04:46:55;13.78;60.31
75190;HTU21D;69198;44.694;37.790;2024-03-06T04:47:57;13.94;60.19
75190;HTU21D;69198;44.694;37.790;2024-03-06T04:48:58;14.10;59.79
75190;HTU21D;69198;44.694;37.790;2024-03-06T04:49:59;14.27;59.54
75190;HTU21D;69198;44.694;37.790;2024-03-06T04:51:00;14.49;59.14
75190;HTU21D;69198;44.694;37.790;2024-03-06T04:52:00;14.65;58.80
75190;HTU21D;69198;44.694;37.790;2024-03-06T04:53:04;14.80;58.32
75190;HTU21D;69198;44.694;37.790;2024-03-06T04:54:05;14.91;57.98
75190;HTU21D;69198;44.694;37.790;2024-03-06T04:55:10;15.00;57.66
75190;HTU21D;69198;44.694;37.790;2024-03-06T04:56:12;15.09;57.39
75190;HTU21D;69198;44.694;37.790;2024-03-06T04:57:13;15.13;57.21
75190;HTU21D;69198;44.694;37.790;2024-03-06T04:58:14;15.23;57.08
75190;HTU21D;69198;44.694;37.790;2024-03-06T04:59:23;15.32;56.77
75190;HTU21D;69198;44.694;37.790;2024-03-06T05:00:24;15.43;56.47
75190;HTU21D;69198;44.694;37.790;2024-03-06T05:01:25;15.51;56.07
75190;HTU21D;69198;44.694;37.790;2024-03-06T05:02:26;15.57;55.87
75190;HTU21D;69198;44.694;37.790;2024-03-06T05:03:27;15.59;55.76
75190;HTU21D;69198;44.694;37.790;2024-03-06T05:04:28;15.66;55.51
75190;HTU21D;69198;44.694;37.790;2024-03-06T05:05:29;15.72;55.38
75190;HTU21D;69198;44.694;37.790;2024-03-06T05:06:30;15.80;55.32
75190;HTU21D;69198;44.694;37.790;2024-03-06T05:07:31;15.89;55.13
75190;HTU21D;69198;44.694;37.790;2024-03-06T05:08:32;15.99;54.62
75190;HTU21D;69198;44.694;37.790;2024-03-06T05:09:34;16.05;54.42
75190;HTU21D;69198;44.694;37.790;2024-03-06T05:10:35;16.07;54.29
75190;HTU21D;69198;44.694;37.790;2024-03-06T05:11:37;16.15;54.03
75190;HTU21D;69198;44.694;37.790;2024-03-06T05:12:39;16.20;53.84
75190;HTU21D;69198;44.694;37.790;2024-03-06T05:13:42;16.27;53.57
75190;HTU21D;69198;44.694;37.790;2024-03-06T05:14:43;16.34;53.57
75190;HTU21D;69198;44.694;37.790;2024-03-06T05:15:44;16.44;53.26
75190;HTU21D;69198;44.694;37.790;2024-03-06T05:16:45;16.50;53.07
75190;HTU21D;69198;44.694;37.790;2024-03-06T05:17:46;16.60;52.81
75190;HTU21D;69198;44.694;37.790;2024-03-06T05:18:48;16.70;52.68
75190;HTU21D;69198;44.694;37.790;2024-03-06T05:19:49;16.78;52.41
75190;HTU21D;69198;44.694;37.790;2024-03-06T05:20:50;16.89;52.30
75190;HTU21D;69198;44.694;37.790;2024-03-06T05:21:51;17.00;52.07
75190;HTU21D;69198;44.694;37.790;2024-03-06T05:22:52;17.10;51.88
75190;HTU21D;69198;44.694;37.790;2024-03-06T05:23:56;17.19;51.72
75190;HTU21D;69198;44.694;37.790;2024-03-06T05:24:57;17.26;51.40
75190;HTU21D;69198;44.694;37.790;2024-03-06T05:25:59;17.34;51.27
75190;HTU21D;69198;44.694;37.790;2024-03-06T05:27:00;17.39;51.03
75190;HTU21D;69198;44.694;37.790;2024-03-06T05:28:01;17.44;50.92
75190;HTU21D;69198;44.694;37.790;2024-03-06T05:29:02;17.45;50.72
75190;HTU21D;69198;44.694;37.790;2024-03-06T05:30:04;17.47;50.72
75190;HTU21D;69198;44.694;37.790;2024-03-06T05:31:16;17.49;50.35
75190;HTU21D;69198;44.694;37.790;2024-03-06T05:32:20;17.48;50.53
75190;HTU21D;69198;44.694;37.790;2024-03-06T05:33:21;17.52;50.33
75190;HTU21D;69198;44.694;37.790;2024-03-06T05:34:23;17.52;50.18
75190;HTU21D;69198;44.694;37.790;2024-03-06T05:35:23;17.52;50.13
75190;HTU21D;69198;44.694;37.790;2024-03-06T05:36:25;17.51;50.15
75190;HTU21D;69198;44.694;37.790;2024-03-06T05:37:26;17.54;49.95
75190;HTU21D;69198;44.694;37.790;2024-03-06T05:38:29;17.54;49.92
75190;HTU21D;69198;44.694;37.790;2024-03-06T05:39:31;17.53;49.77
75190;HTU21D;69198;44.694;37.790;2024-03-06T05:40:32;17.51;49.76
75190;HTU21D;69198;44.694;37.790;2024-03-06T05:41:43;17.52;49.67
75190;HTU21D;69198;44.694;37.790;2024-03-06T05:42:44;17.49;49.79
75190;HTU21D;69198;44.694;37.790;2024-03-06T05:43:45;17.43;49.60
75190;HTU21D;69198;44.694;37.790;2024-03-06T05:44:46;17.36;49.79
75190;HTU21D;69198;44.694;37.790;2024-03-06T05:45:49;17.35;49.69
75190;HTU21D;69198;44.694;37.790;2024-03-06T05:46:50;17.34;49.76
75190;HTU21D;69198;44.694;37.790;2024-03-06T05:47:51;17.37;49.56
75190;HTU21D;69198;44.694;37.790;2024-03-06T05:48:52;17.38;49.50
75190;HTU21D;69198;44.694;37.790;2024-03-06T05:49:53;17.38;49.38
75190;HTU21D;69198;44.694;37.790;2024-03-06T05:50:57;17.39;49.28
75190;HTU21D;69198;44.694;37.790;2024-03-06T05:51:58;17.44;49.10
75190;HTU21D;69198;44.694;37.790;2024-03-06T05:52:59;17.48;49.08
75190;HTU21D;69198;44.694;37.790;2024-03-06T05:54:00;17.53;48.77
75190;HTU21D;69198;44.694;37.790;2024-03-06T05:55:01;17.55;48.64
75190;HTU21D;69198;44.694;37.790;2024-03-06T05:56:05;17.60;48.60
75190;HTU21D;69198;44.694;37.790;2024-03-06T05:57:07;17.65;48.53
75190;HTU21D;69198;44.694;37.790;2024-03-06T05:58:07;17.74;48.37
75190;HTU21D;69198;44.694;37.790;2024-03-06T05:59:09;17.82;48.22
75190;HTU21D;69198;44.694;37.790;2024-03-06T06:00:11;17.94;48.00
75190;HTU21D;69198;44.694;37.790;2024-03-06T06:01:15;18.09;47.62
75190;HTU21D;69198;44.694;37.790;2024-03-06T06:02:20;18.22;47.51
75190;HTU21D;69198;44.694;37.790;2024-03-06T06:03:21;18.35;47.18
75190;HTU21D;69198;44.694;37.790;2024-03-06T06:04:22;18.49;47.02
75190;HTU21D;69198;44.694;37.790;2024-03-06T06:05:23;18.66;46.59
75190;HTU21D;69198;44.694;37.790;2024-03-06T06:06:24;18.81;46.31
75190;HTU21D;69198;44.694;37.790;2024-03-06T06:07:25;18.91;45.88
75190;HTU21D;69198;44.694;37.790;2024-03-06T06:08:26;18.92;45.72
75190;HTU21D;69198;44.694;37.790;2024-03-06T06:09:27;18.81;45.64
75190;HTU21D;69198;44.694;37.790;2024-03-06T06:10:28;18.76;45.97
75190;HTU21D;69198;44.694;37.790;2024-03-06T06:11:29;18.87;45.82
75190;HTU21D;69198;44.694;37.790;2024-03-06T06:12:30;19.03;45.51
75190;HTU21D;69198;44.694;37.790;2024-03-06T06:13:31;19.21;45.13
75190;HTU21D;69198;44.694;37.790;2024-03-06T06:14:32;19.24;44.83
75190;HTU21D;69198;44.694;37.790;2024-03-06T06:15:33;19.09;44.70
75190;HTU21D;69198;44.694;37.790;2024-03-06T06:16:38;18.86;44.93
75190;HTU21D;69198;44.694;37.790;2024-03-06T06:17:42;18.65;45.30
75190;HTU21D;69198;44.694;37.790;2024-03-06T06:18:49;18.48;45.38